Time;durP1;ratioP1;P1;durP2;ratioP2;P2;SDS_P1;SDS_P2;PMS_P1;PMS_P2;Temp;Humidity;BMP_temperature;BMP_pressure;BME280_temperature;BME280_humidity;BME280_pressure;Samples;Min_cycle;Max_cycle;Signal;HPM_P1;HPM_P2
2022/08/05 00:01:19;;;;;;;6.45;2.45;;;18.70;99.90;;;;;;5019083;28;20109;-73
2022/08/05 00:03:46;;;;;;;6.05;2.78;;;18.70;99.90;;;;;;5038216;28;20501;-73
2022/08/05 00:06:12;;;;;;;4.95;2.53;;;18.70;99.90;;;;;;5000459;28;20127;-72
2022/08/05 00:08:38;;;;;;;4.40;2.50;;;18.70;99.90;;;;;;5032656;28;20048;-72
2022/08/05 00:11:08;;;;;;;7.60;2.95;;;18.70;99.90;;;;;;5000687;28;20127;-72
2022/08/05 00:13:36;;;;;;;6.32;2.58;;;18.70;99.90;;;;;;5035988;28;20040;-72
2022/08/05 00:16:02;;;;;;;13.75;3.08;;;18.60;99.90;;;;;;5032303;28;20072;-72
2022/08/05 00:18:28;;;;;;;8.48;2.80;;;18.60;99.90;;;;;;5012600;28;20047;-72
2022/08/05 00:20:57;;;;;;;6.45;2.70;;;18.60;99.90;;;;;;5029923;28;20040;-71
2022/08/05 00:23:23;;;;;;;7.97;2.88;;;18.60;99.90;;;;;;5020669;28;20047;-73
2022/08/05 00:25:50;;;;;;;5.72;3.00;;;18.60;99.90;;;;;;5032725;28;20083;-72
2022/08/05 00:28:15;;;;;;;7.80;3.20;;;18.60;99.90;;;;;;5048502;28;20051;-72
2022/08/05 00:30:42;;;;;;;8.52;3.13;;;18.60;99.90;;;;;;5035317;28;20498;-72
2022/08/05 00:33:08;;;;;;;6.57;3.72;;;18.60;99.90;;;;;;5021183;28;20131;-72
2022/08/05 00:35:34;;;;;;;7.90;3.33;;;18.60;99.90;;;;;;5033853;28;20126;-71
2022/08/05 00:38:00;;;;;;;7.25;3.10;;;18.60;99.90;;;;;;5018522;28;20059;-72
2022/08/05 00:40:27;;;;;;;6.22;3.10;;;18.50;99.90;;;;;;5032405;28;20836;-73
2022/08/05 00:42:54;;;;;;;6.43;3.42;;;18.50;99.90;;;;;;5031873;28;20060;-72
2022/08/05 00:45:20;;;;;;;4.57;3.03;;;18.40;99.90;;;;;;5033237;28;20072;-73
2022/08/05 01:02:04;;;;;;;5.20;3.20;;;18.30;99.90;;;;;;4983058;28;20585;-72
2022/08/05 01:04:30;;;;;;;7.28;3.30;;;18.30;99.90;;;;;;5018526;28;20094;-72
2022/08/05 01:06:56;;;;;;;6.30;3.00;;;18.30;99.90;;;;;;5013977;28;20051;-72
2022/08/05 01:09:22;;;;;;;4.70;2.58;;;18.30;99.90;;;;;;5032608;28;20095;-72
2022/08/05 01:11:49;;;;;;;7.63;3.00;;;18.20;99.90;;;;;;5044994;28;20064;-72
2022/08/05 01:14:50;;;;;;;6.57;3.25;;;18.20;99.90;;;;;;5032661;28;20045;-72
2022/08/05 01:17:37;;;;;;;8.25;3.45;;;18.30;99.90;;;;;;5016418;28;20056;-72
2022/08/05 01:20:41;;;;;;;6.80;3.67;;;18.20;99.90;;;;;;5034202;28;20049;-72
2022/08/05 01:23:22;;;;;;;6.72;3.67;;;18.30;99.90;;;;;;5014695;28;20630;-72
2022/08/05 01:26:30;;;;;;;6.60;3.20;;;18.30;99.90;;;;;;5018449;28;20044;-72
2022/08/05 01:29:00;;;;;;;8.65;3.83;;;18.30;99.90;;;;;;5031245;28;20055;-72
2022/08/05 01:31:32;;;;;;;6.28;3.65;;;18.30;99.90;;;;;;5020983;28;20074;-72
2022/08/05 01:34:17;;;;;;;4.82;2.97;;;18.20;99.90;;;;;;5037533;28;20103;-72
2022/08/05 01:36:49;;;;;;;4.38;3.13;;;18.30;99.90;;;;;;5020484;28;20045;-73
2022/08/05 01:39:17;;;;;;;8.07;3.50;;;18.30;99.90;;;;;;5055755;28;20118;-72
2022/08/05 01:41:45;;;;;;;6.63;3.33;;;18.30;99.90;;;;;;5034961;28;20509;-72
2022/08/05 01:44:12;;;;;;;6.30;3.80;;;18.30;99.90;;;;;;5033119;28;20177;-72
2022/08/05 01:46:40;;;;;;;7.60;3.85;;;18.30;99.90;;;;;;5035836;28;20128;-73
2022/08/05 01:49:09;;;;;;;7.00;3.50;;;18.30;99.90;;;;;;5008549;28;20045;-72
2022/08/05 01:51:35;;;;;;;8.52;3.50;;;18.30;99.90;;;;;;5019465;28;20052;-72
2022/08/05 01:54:04;;;;;;;6.93;3.60;;;18.30;99.90;;;;;;5006654;28;20044;-72
2022/08/05 01:56:33;;;;;;;7.60;3.10;;;18.30;99.90;;;;;;5025590;28;20403;-72
2022/08/05 01:59:03;;;;;;;6.40;3.10;;;18.30;99.90;;;;;;5036425;28;20058;-72
2022/08/05 02:01:31;;;;;;;6.10;3.53;;;18.30;99.90;;;;;;5032291;28;20102;-73
2022/08/05 02:04:00;;;;;;;8.13;3.33;;;18.40;99.90;;;;;;5015509;28;20539;-73
2022/08/05 02:06:26;;;;;;;4.65;2.95;;;18.40;99.90;;;;;;5034533;28;20326;-73
2022/08/05 02:08:52;;;;;;;7.80;3.83;;;18.40;99.90;;;;;;5017905;28;20036;-73
2022/08/05 02:11:19;;;;;;;7.20;3.45;;;18.40;99.90;;;;;;5021364;28;20056;-73
2022/08/05 02:14:27;;;;;;;6.25;3.47;;;18.40;99.90;;;;;;5033346;28;20824;-73
2022/08/05 02:16:57;;;;;;;5.22;3.58;;;18.40;99.90;;;;;;4940418;28;20093;-73
2022/08/05 02:19:26;;;;;;;4.90;3.03;;;18.30;99.90;;;;;;4992524;28;20494;-73
2022/08/05 02:22:08;;;;;;;8.55;3.28;;;18.30;99.90;;;;;;5025674;28;20049;-72
2022/08/05 02:24:37;;;;;;;6.18;3.53;;;18.30;99.90;;;;;;5034485;28;20044;-72
2022/08/05 02:27:07;;;;;;;5.25;3.42;;;18.30;99.90;;;;;;5033130;28;20056;-73
2022/08/05 02:29:35;;;;;;;6.93;3.42;;;18.30;99.90;;;;;;5036727;28;20074;-72
2022/08/05 02:32:03;;;;;;;5.07;3.92;;;18.30;99.90;;;;;;5021450;28;20188;-72
2022/08/05 02:34:31;;;;;;;6.60;3.88;;;18.30;99.90;;;;;;5016836;28;20040;-73
2022/08/05 02:37:01;;;;;;;11.82;3.92;;;18.30;99.90;;;;;;5036329;28;20055;-72
2022/08/05 02:39:33;;;;;;;4.82;3.47;;;18.30;99.90;;;;;;5033822;28;20135;-73
2022/08/05 02:42:01;;;;;;;8.15;3.35;;;18.20;99.90;;;;;;5019674;28;20051;-73
2022/08/05 02:44:29;;;;;;;8.32;3.35;;;18.20;99.90;;;;;;5035966;28;20909;-73
2022/08/05 02:46:56;;;;;;;5.30;3.50;;;18.20;99.90;;;;;;5023326;28;20086;-72
2022/08/05 02:49:24;;;;;;;4.60;3.47;;;18.20;99.90;;;;;;5015763;28;20122;-72
2022/08/05 02:51:51;;;;;;;9.00;4.18;;;18.10;99.90;;;;;;5021204;28;20571;-72
2022/08/05 02:54:18;;;;;;;5.60;3.30;;;18.10;99.90;;;;;;5036671;28;20471;-73
2022/08/05 02:56:45;;;;;;;6.60;3.70;;;18.10;99.90;;;;;;5036349;28;20048;-72
2022/08/05 02:59:12;;;;;;;6.32;3.78;;;18.10;99.90;;;;;;5003786;28;20045;-73
2022/08/05 03:01:40;;;;;;;6.88;4.00;;;18.10;99.90;;;;;;4986155;28;20048;-72
2022/08/05 03:04:09;;;;;;;7.75;4.10;;;18.10;99.90;;;;;;5018387;28;20045;-72
2022/08/05 03:06:37;;;;;;;7.72;3.90;;;18.10;99.90;;;;;;5029095;28;20163;-72
2022/08/05 03:09:03;;;;;;;7.10;3.90;;;18.10;99.90;;;;;;5031234;28;20051;-72
2022/08/05 03:11:29;;;;;;;7.95;3.78;;;18.10;99.90;;;;;;5018661;28;20036;-73
2022/08/05 03:13:55;;;;;;;7.68;3.95;;;18.10;99.90;;;;;;5028314;28;20060;-73
2022/08/05 03:16:21;;;;;;;6.72;3.97;;;18.00;99.90;;;;;;5018177;28;20082;-72
2022/08/05 03:18:47;;;;;;;6.57;4.15;;;18.00;99.90;;;;;;5033316;28;20044;-72
2022/08/05 03:21:13;;;;;;;7.18;4.43;;;18.00;99.90;;;;;;5047306;28;20490;-72
2022/08/05 03:23:41;;;;;;;7.15;4.68;;;18.00;99.90;;;;;;5031706;28;20048;-72
2022/08/05 03:26:08;;;;;;;6.78;4.03;;;18.00;99.90;;;;;;5036474;28;20123;-72
2022/08/05 03:28:35;;;;;;;8.57;4.18;;;18.00;99.90;;;;;;5005997;28;20048;-72
2022/08/05 03:31:02;;;;;;;7.45;3.80;;;17.90;99.90;;;;;;5023986;28;20056;-72
2022/08/05 03:33:29;;;;;;;6.40;3.60;;;17.90;99.90;;;;;;5033760;28;20806;-72
2022/08/05 03:35:56;;;;;;;5.70;3.38;;;18.00;99.90;;;;;;5014389;28;20097;-72
2022/08/05 03:38:24;;;;;;;6.40;3.60;;;17.90;99.90;;;;;;5033444;28;20128;-72
2022/08/05 03:40:52;;;;;;;6.22;3.90;;;17.90;99.90;;;;;;5032191;28;20047;-72
2022/08/05 03:43:19;;;;;;;6.45;3.50;;;17.90;99.90;;;;;;5041295;28;20662;-73
2022/08/05 03:45:46;;;;;;;4.72;3.50;;;17.90;99.90;;;;;;5050624;28;20040;-72
2022/08/05 03:48:11;;;;;;;4.60;2.97;;;17.90;99.90;;;;;;5018626;28;20088;-73
2022/08/05 03:51:18;;;;;;;7.82;3.92;;;17.90;99.90;;;;;;4994284;28;20163;-72
2022/08/05 03:53:53;;;;;;;5.93;3.78;;;17.90;99.90;;;;;;5031372;28;20057;-72
2022/08/05 03:56:51;;;;;;;7.50;3.90;;;17.90;99.90;;;;;;5034924;28;20056;-72
2022/08/05 03:59:29;;;;;;;9.45;3.78;;;17.90;99.90;;;;;;5011039;28;21003;-72
2022/08/05 04:01:58;;;;;;;5.80;3.75;;;17.80;99.90;;;;;;5035710;28;20048;-72
2022/08/05 04:04:24;;;;;;;6.38;3.75;;;17.80;99.90;;;;;;5015168;28;20055;-73
2022/08/05 04:06:52;;;;;;;5.13;3.05;;;17.80;99.90;;;;;;5003614;28;20528;-72
2022/08/05 04:09:18;;;;;;;6.03;3.47;;;17.80;99.90;;;;;;5015342;28;20049;-72
2022/08/05 04:11:44;;;;;;;5.80;3.40;;;17.80;99.90;;;;;;5012471;28;20049;-72
2022/08/05 04:14:10;;;;;;;4.57;3.35;;;17.80;99.90;;;;;;5052579;28;20131;-73
2022/08/05 04:16:37;;;;;;;4.22;2.50;;;17.80;99.90;;;;;;5033826;28;20510;-73
2022/08/05 04:19:03;;;;;;;5.32;3.08;;;17.80;99.90;;;;;;5030952;28;20059;-72
2022/08/05 04:21:29;;;;;;;4.35;3.20;;;17.80;99.90;;;;;;5013103;28;20049;-72
2022/08/05 04:23:57;;;;;;;5.32;3.55;;;17.80;99.90;;;;;;5012173;28;20071;-72
2022/08/05 04:26:24;;;;;;;6.30;3.42;;;17.80;99.90;;;;;;5021430;28;20094;-72
2022/08/05 04:28:49;;;;;;;6.28;3.65;;;17.70;99.90;;;;;;5034490;28;20159;-72
2022/08/05 04:31:15;;;;;;;4.65;3.63;;;17.70;99.90;;;;;;5008948;28;20046;-72
2022/08/05 04:33:41;;;;;;;6.88;3.30;;;17.70;99.90;;;;;;5017576;28;20056;-72
2022/08/05 04:36:08;;;;;;;4.47;3.65;;;17.70;99.90;;;;;;5018310;28;20045;-73
2022/08/05 04:38:36;;;;;;;4.53;3.10;;;17.70;99.90;;;;;;4999831;28;20044;-72
2022/08/05 04:41:02;;;;;;;5.03;3.63;;;17.70;99.90;;;;;;5047906;28;20052;-72
2022/08/05 04:43:27;;;;;;;3.70;3.10;;;17.60;99.90;;;;;;5010932;28;20060;-72
2022/08/05 04:45:53;;;;;;;4.57;3.28;;;17.60;99.90;;;;;;5015898;28;20046;-73
2022/08/05 04:48:19;;;;;;;4.80;3.30;;;17.60;99.90;;;;;;5023723;28;20055;-72
2022/08/05 04:50:47;;;;;;;6.03;3.35;;;17.60;99.90;;;;;;5031583;28;20103;-73
2022/08/05 04:53:15;;;;;;;5.25;3.67;;;17.70;99.90;;;;;;5012534;28;20127;-73
2022/08/05 04:55:42;;;;;;;6.20;3.67;;;17.70;99.90;;;;;;5017391;28;20127;-72
2022/08/05 04:58:10;;;;;;;5.75;3.55;;;17.70;99.90;;;;;;5032231;28;20047;-73
2022/08/05 05:00:36;;;;;;;7.75;4.00;;;17.70;99.90;;;;;;5013859;28;20067;-73
2022/08/05 05:03:04;;;;;;;3.92;3.53;;;17.60;99.90;;;;;;5053284;28;20045;-73
2022/08/05 05:05:30;;;;;;;5.82;3.60;;;17.60;99.90;;;;;;5028999;28;20109;-73
2022/08/05 05:08:00;;;;;;;7.18;3.45;;;17.60;99.90;;;;;;5004069;28;20044;-73
2022/08/05 05:10:27;;;;;;;6.97;3.55;;;17.60;99.90;;;;;;5025965;28;20762;-73
2022/08/05 05:12:52;;;;;;;6.60;3.78;;;17.60;99.90;;;;;;5016337;28;20108;-72
2022/08/05 05:15:18;;;;;;;7.85;3.55;;;17.60;99.90;;;;;;4992518;28;20048;-73
2022/08/05 05:17:44;;;;;;;7.95;3.55;;;17.60;99.90;;;;;;5011398;28;20076;-72
2022/08/05 05:20:11;;;;;;;6.47;3.40;;;17.50;99.90;;;;;;5017333;28;20087;-73
2022/08/05 05:22:37;;;;;;;6.03;3.47;;;17.60;99.90;;;;;;4997253;28;20466;-72
2022/08/05 05:25:04;;;;;;;8.60;3.58;;;17.60;99.90;;;;;;5014430;28;20094;-73
2022/08/05 05:27:32;;;;;;;7.03;3.20;;;17.60;99.90;;;;;;5019279;28;20043;-72
2022/08/05 05:29:58;;;;;;;4.68;2.92;;;17.60;99.90;;;;;;5027313;28;20045;-72
2022/08/05 05:32:24;;;;;;;7.35;3.22;;;17.50;99.90;;;;;;5012563;28;20126;-73
2022/08/05 05:34:50;;;;;;;5.93;3.60;;;17.50;99.90;;;;;;4992767;28;20174;-73
2022/08/05 05:37:16;;;;;;;5.90;3.50;;;17.50;99.90;;;;;;5026537;28;20044;-73
2022/08/05 05:39:42;;;;;;;4.32;3.20;;;17.50;99.90;;;;;;4996223;28;20113;-73
2022/08/05 05:42:08;;;;;;;9.45;3.00;;;17.50;99.90;;;;;;5024910;28;20590;-72
2022/08/05 05:44:34;;;;;;;4.45;2.95;;;17.50;99.90;;;;;;5016372;28;20502;-72
2022/08/05 05:47:00;;;;;;;6.20;3.20;;;17.50;99.90;;;;;;5030336;28;20063;-72
2022/08/05 05:49:26;;;;;;;6.45;3.38;;;17.50;99.90;;;;;;5031176;28;20052;-72
2022/08/05 05:51:55;;;;;;;11.20;3.47;;;17.50;99.90;;;;;;5028395;28;20063;-73
2022/08/05 05:54:22;;;;;;;6.13;3.90;;;17.50;99.90;;;;;;5043893;28;20053;-72
2022/08/05 05:56:48;;;;;;;5.50;3.58;;;17.50;99.90;;;;;;5010538;28;20080;-72
2022/08/05 05:59:14;;;;;;;4.70;3.97;;;17.40;99.90;;;;;;5049046;28;20151;-73
2022/08/05 06:01:41;;;;;;;8.68;3.50;;;17.40;99.90;;;;;;5030493;28;20037;-73
2022/08/05 06:04:09;;;;;;;5.32;3.60;;;17.40;99.90;;;;;;5032780;28;20123;-72
2022/08/05 06:06:35;;;;;;;5.18;3.03;;;17.40;99.90;;;;;;5008082;28;20795;-72
2022/08/05 06:09:03;;;;;;;9.63;3.97;;;17.40;99.90;;;;;;5030592;28;20056;-73
2022/08/05 06:11:29;;;;;;;8.32;3.80;;;17.40;99.90;;;;;;5021738;28;20047;-72
2022/08/05 06:13:55;;;;;;;7.80;4.28;;;17.40;99.90;;;;;;5020268;28;20057;-72
2022/08/05 06:16:22;;;;;;;7.72;4.20;;;17.40;99.90;;;;;;5021201;28;20052;-72
2022/08/05 06:18:47;;;;;;;7.00;3.70;;;17.50;99.90;;;;;;5025158;28;20048;-72
2022/08/05 06:21:13;;;;;;;5.15;3.25;;;17.50;99.90;;;;;;5007774;28;20375;-72
2022/08/05 06:23:39;;;;;;;5.90;3.60;;;17.60;99.90;;;;;;4976695;28;20586;-72
2022/08/05 06:26:05;;;;;;;5.68;3.60;;;17.60;99.90;;;;;;4977230;28;20090;-72
2022/08/05 06:28:30;;;;;;;8.05;3.60;;;17.70;99.90;;;;;;5026431;28;20039;-73
2022/08/05 06:30:56;;;;;;;5.00;3.10;;;17.70;99.90;;;;;;5018903;28;20044;-72
2022/08/05 06:33:22;;;;;;;5.55;2.90;;;17.80;99.90;;;;;;5021894;28;20052;-73
2022/08/05 06:35:48;;;;;;;6.85;3.05;;;17.90;99.90;;;;;;5033334;28;20041;-73
2022/08/05 06:38:13;;;;;;;5.15;2.83;;;17.90;99.90;;;;;;5034112;28;20159;-73
2022/08/05 06:40:41;;;;;;;7.07;2.70;;;18.00;99.90;;;;;;5037566;28;20080;-73
2022/08/05 06:43:08;;;;;;;5.43;2.70;;;18.10;99.90;;;;;;5036098;28;20045;-72
2022/08/05 06:45:34;;;;;;;8.80;2.63;;;18.20;99.90;;;;;;5021468;28;20510;-73
2022/08/05 06:47:59;;;;;;;4.90;2.40;;;18.30;99.90;;;;;;5037111;28;20527;-73
2022/08/05 06:50:25;;;;;;;4.53;1.80;;;18.40;99.90;;;;;;5019527;28;20098;-73
2022/08/05 06:52:52;;;;;;;4.40;1.90;;;18.50;99.90;;;;;;5008709;28;20384;-73
2022/08/05 06:55:18;;;;;;;2.55;2.00;;;18.50;99.90;;;;;;5020540;28;20049;-73
2022/08/05 06:57:43;;;;;;;3.42;1.77;;;18.50;99.90;;;;;;5004836;28;20413;-73
2022/08/05 07:00:10;;;;;;;4.15;1.40;;;18.60;99.90;;;;;;5028335;28;20036;-72
2022/08/05 07:02:46;;;;;;;5.55;1.75;;;18.60;99.90;;;;;;5019852;28;20071;-73
2022/08/05 07:05:13;;;;;;;2.88;1.40;;;18.70;99.90;;;;;;5024640;28;20053;-73
2022/08/05 07:07:39;;;;;;;2.50;1.10;;;18.80;99.90;;;;;;5009212;28;20129;-73
2022/08/05 07:10:07;;;;;;;3.10;1.20;;;19.00;99.90;;;;;;5028926;28;20032;-73
2022/08/05 07:18:03;;;;;;;5.63;1.25;;;19.30;99.90;;;;;;5016380;28;20119;-73
2022/08/05 07:20:28;;;;;;;3.45;1.15;;;19.40;99.90;;;;;;4996131;28;20083;-73
2022/08/05 07:22:54;;;;;;;1.95;1.17;;;19.50;99.90;;;;;;5021979;28;20048;-73
2022/08/05 07:25:20;;;;;;;5.10;1.08;;;19.60;99.90;;;;;;5021813;28;20048;-73
2022/08/05 07:27:47;;;;;;;3.10;1.10;;;19.60;99.90;;;;;;5023003;28;20163;-73
2022/08/05 07:30:13;;;;;;;5.75;1.20;;;19.50;99.90;;;;;;5021693;28;20048;-73
2022/08/05 07:32:39;;;;;;;2.35;0.98;;;19.60;99.90;;;;;;5022149;28;20068;-73
2022/08/05 07:35:09;;;;;;;3.53;1.10;;;19.70;99.90;;;;;;5003227;28;20055;-73
2022/08/05 07:37:35;;;;;;;3.00;1.13;;;19.80;99.90;;;;;;5012590;28;20491;-73
2022/08/05 07:40:01;;;;;;;3.22;1.10;;;20.00;99.90;;;;;;4990466;28;20084;-73
2022/08/05 07:42:27;;;;;;;3.17;1.05;;;20.10;99.90;;;;;;5006543;28;20049;-73
2022/08/05 07:44:52;;;;;;;4.05;1.40;;;20.10;99.90;;;;;;5030678;28;20099;-73
2022/08/05 07:47:18;;;;;;;2.63;1.02;;;20.20;99.90;;;;;;5021254;28;20079;-73
2022/08/05 07:49:44;;;;;;;2.67;1.15;;;20.30;99.90;;;;;;5007401;28;20033;-73
2022/08/05 07:52:10;;;;;;;3.80;1.15;;;20.40;99.90;;;;;;5019394;28;20052;-73
2022/08/05 07:54:35;;;;;;;2.28;1.00;;;20.50;99.90;;;;;;5026490;28;21152;-73
2022/08/05 07:57:02;;;;;;;2.70;0.90;;;20.40;99.90;;;;;;5026737;28;20052;-73
2022/08/05 07:59:28;;;;;;;3.13;1.08;;;20.40;99.40;;;;;;4998897;28;20052;-73
2022/08/05 08:01:54;;;;;;;2.25;1.13;;;20.50;99.30;;;;;;4995030;28;20469;-73
2022/08/05 08:04:20;;;;;;;4.05;1.10;;;20.70;99.10;;;;;;5015321;28;20048;-66
2022/08/05 08:06:45;;;;;;;4.20;1.25;;;20.80;98.60;;;;;;5011849;28;20060;-66
2022/08/05 08:09:11;;;;;;;4.50;1.30;;;20.90;98.20;;;;;;5047703;28;20594;-65
2022/08/05 08:11:37;;;;;;;6.50;1.20;;;21.00;97.80;;;;;;5044368;28;20051;-66
2022/08/05 08:14:03;;;;;;;39.38;7.38;;;21.10;97.80;;;;;;5025543;28;20037;-65
2022/08/05 08:16:29;;;;;;;4.78;1.00;;;21.20;97.90;;;;;;5032328;28;20051;-66
2022/08/05 08:18:55;;;;;;;2.38;0.90;;;21.30;97.40;;;;;;5026989;28;20051;-65
2022/08/05 08:21:20;;;;;;;8.43;1.45;;;21.20;97.00;;;;;;5032393;28;20746;-67
2022/08/05 08:23:46;;;;;;;10.88;1.40;;;21.30;97.00;;;;;;5025441;28;20045;-59
2022/08/05 08:26:12;;;;;;;5.22;0.93;;;21.30;97.00;;;;;;5047444;28;20044;-62
2022/08/05 08:28:38;;;;;;;3.22;0.73;;;21.10;97.10;;;;;;5047498;28;20041;-62
2022/08/05 08:31:07;;;;;;;5.30;1.00;;;20.90;97.30;;;;;;5026719;28;20044;-62
2022/08/05 08:33:33;;;;;;;3.20;0.95;;;20.90;97.80;;;;;;5050922;28;20131;-62
2022/08/05 08:35:59;;;;;;;3.30;1.10;;;21.00;97.90;;;;;;5045144;28;20419;-61
2022/08/05 08:38:25;;;;;;;3.80;1.00;;;21.10;97.80;;;;;;5047763;28;20040;-61
2022/08/05 08:40:51;;;;;;;4.70;0.90;;;21.30;97.60;;;;;;5045089;28;20070;-60
2022/08/05 08:43:18;;;;;;;3.88;1.00;;;21.50;97.30;;;;;;5045258;28;20060;-60
2022/08/05 08:45:45;;;;;;;1.63;1.00;;;21.40;96.70;;;;;;5044339;28;20051;-58
2022/08/05 08:48:14;;;;;;;4.85;0.80;;;21.40;96.50;;;;;;5042921;28;20051;-60
2022/08/05 08:50:42;;;;;;;3.10;0.77;;;21.40;96.50;;;;;;5023311;28;20043;-60
2022/08/05 08:53:11;;;;;;;1.40;0.60;;;21.50;96.30;;;;;;5043849;28;21171;-63
2022/08/05 08:55:37;;;;;;;3.70;0.70;;;21.50;95.20;;;;;;5041974;28;20068;-63
2022/08/05 08:58:03;;;;;;;4.50;0.73;;;21.60;94.50;;;;;;5042960;28;20126;-62
2022/08/05 09:00:30;;;;;;;2.70;0.82;;;21.70;94.70;;;;;;5040728;28;20625;-62
2022/08/05 09:02:57;;;;;;;3.35;0.80;;;21.70;94.70;;;;;;5043118;28;20426;-61
2022/08/05 09:05:22;;;;;;;2.55;0.75;;;21.60;94.70;;;;;;5036672;28;20136;-61
2022/08/05 09:07:51;;;;;;;1.85;0.98;;;21.50;94.80;;;;;;5036986;28;20059;-64
2022/08/05 09:10:18;;;;;;;3.80;0.70;;;21.60;95.10;;;;;;5024187;28;20044;-70
2022/08/05 09:12:44;;;;;;;3.67;0.70;;;21.70;94.60;;;;;;5025348;28;20044;-68
2022/08/05 09:15:10;;;;;;;4.30;0.80;;;21.90;94.60;;;;;;5013924;28;20067;-72
2022/08/05 09:17:36;;;;;;;2.35;0.70;;;22.10;94.70;;;;;;5024977;28;20048;-72
2022/08/05 09:20:03;;;;;;;2.53;0.75;;;22.20;93.80;;;;;;4995892;28;20073;-72
2022/08/05 09:22:49;;;;;;;2.20;0.63;;;22.30;93.10;;;;;;5031126;28;20044;-72
2022/08/05 09:25:19;;;;;;;1.50;0.80;;;22.30;92.70;;;;;;5031846;28;20040;-71
2022/08/05 09:27:45;;;;;;;3.33;0.75;;;22.40;92.90;;;;;;5027138;28;20064;-71
2022/08/05 09:30:15;;;;;;;2.85;0.70;;;22.60;92.30;;;;;;5013179;28;20135;-71
2022/08/05 09:32:41;;;;;;;2.58;0.70;;;22.50;91.90;;;;;;5032592;28;20036;-72
2022/08/05 09:35:16;;;;;;;3.58;0.90;;;22.40;91.80;;;;;;5035900;28;20483;-72
2022/08/05 09:37:50;;;;;;;6.45;0.70;;;22.40;92.00;;;;;;5031378;28;20466;-71
2022/08/05 09:40:48;;;;;;;4.07;0.80;;;22.40;91.60;;;;;;4988897;28;20258;-71
2022/08/05 09:43:27;;;;;;;3.45;0.60;;;22.50;91.60;;;;;;4995494;28;20534;-71
2022/08/05 09:45:53;;;;;;;1.17;0.65;;;22.60;91.50;;;;;;5024687;28;21189;-71
2022/08/05 09:48:33;;;;;;;3.20;0.70;;;22.70;90.70;;;;;;5025354;28;20393;-71
2022/08/05 09:51:00;;;;;;;3.08;0.60;;;22.80;90.50;;;;;;5038563;28;20518;-71
2022/08/05 09:53:27;;;;;;;3.58;0.80;;;22.90;89.60;;;;;;5012453;28;20335;-71
2022/08/05 09:55:58;;;;;;;1.83;0.77;;;22.80;88.00;;;;;;5039089;28;20041;-72
2022/08/05 09:58:26;;;;;;;0.80;0.60;;;22.90;88.50;;;;;;5031058;28;20490;-71
2022/08/05 10:01:03;;;;;;;1.73;0.60;;;23.00;89.20;;;;;;5010945;28;20792;-71
2022/08/05 10:03:29;;;;;;;3.80;0.75;;;23.10;88.40;;;;;;5019645;28;20037;-71
2022/08/05 10:06:09;;;;;;;1.38;0.50;;;23.20;85.60;;;;;;5030397;28;20110;-72
2022/08/05 10:08:37;;;;;;;2.75;0.63;;;23.20;82.70;;;;;;5031694;28;20049;-72
2022/08/05 10:11:11;;;;;;;3.83;0.60;;;23.30;81.90;;;;;;5011838;28;20514;-72
2022/08/05 10:13:39;;;;;;;4.78;0.70;;;23.40;82.30;;;;;;5030598;28;20049;-71
2022/08/05 10:16:26;;;;;;;1.02;0.40;;;23.50;82.10;;;;;;5028539;28;20545;-72
2022/08/05 10:18:53;;;;;;;1.15;0.50;;;23.50;77.70;;;;;;5025517;28;20730;-72
2022/08/05 10:21:19;;;;;;;2.08;0.57;;;23.60;73.40;;;;;;5008806;28;20497;-73
2022/08/05 10:23:46;;;;;;;1.83;0.50;;;23.50;71.40;;;;;;5011026;28;20068;-73
2022/08/05 10:26:13;;;;;;;4.22;0.57;;;23.70;71.00;;;;;;5021231;28;20051;-68
2022/08/05 10:28:40;;;;;;;3.67;0.43;;;23.70;71.40;;;;;;5022707;28;20500;-68
2022/08/05 10:31:06;;;;;;;3.25;0.60;;;23.80;69.90;;;;;;5006418;28;20095;-68
2022/08/05 10:33:33;;;;;;;1.58;0.40;;;24.00;67.50;;;;;;4995937;28;20780;-68
2022/08/05 10:36:03;;;;;;;1.55;0.40;;;24.00;67.30;;;;;;5025687;28;20099;-68
2022/08/05 10:38:31;;;;;;;1.55;0.47;;;24.10;66.20;;;;;;5011269;28;20048;-68
2022/08/05 10:41:24;;;;;;;1.83;0.63;;;24.20;64.50;;;;;;5026243;28;20904;-68
2022/08/05 10:44:04;;;;;;;3.90;0.40;;;24.30;64.10;;;;;;5026255;28;20213;-68
2022/08/05 10:46:50;;;;;;;1.30;0.32;;;24.30;64.30;;;;;;5021090;28;20493;-68
2022/08/05 10:49:17;;;;;;;0.93;0.32;;;24.20;64.70;;;;;;5016769;28;20045;-68
2022/08/05 10:51:47;;;;;;;0.52;0.28;;;24.00;64.10;;;;;;5025799;28;20509;-68
2022/08/05 10:54:15;;;;;;;2.42;0.82;;;23.90;64.10;;;;;;5031921;28;20387;-68
2022/08/05 10:56:55;;;;;;;3.65;0.40;;;24.00;63.90;;;;;;5030818;28;20546;-68
2022/08/05 10:59:29;;;;;;;1.05;0.43;;;24.10;63.30;;;;;;5031957;28;20136;-68
2022/08/05 11:02:16;;;;;;;4.68;0.55;;;24.20;64.40;;;;;;5009166;28;20140;-67
2022/08/05 11:04:44;;;;;;;1.30;0.40;;;24.30;65.70;;;;;;5004975;28;20053;-67
2022/08/05 11:07:14;;;;;;;2.05;0.90;;;24.50;63.90;;;;;;5024034;28;20696;-67
2022/08/05 11:09:46;;;;;;;2.75;0.40;;;24.60;63.90;;;;;;5014887;28;20055;-67
2022/08/05 11:12:39;;;;;;;1.33;0.50;;;24.60;62.70;;;;;;5021072;28;20442;-67
2022/08/05 11:15:14;;;;;;;4.97;0.60;;;24.60;63.10;;;;;;5024386;28;21289;-67
2022/08/05 11:17:41;;;;;;;2.58;0.50;;;24.80;63.30;;;;;;5024677;28;20076;-67
2022/08/05 11:20:41;;;;;;;1.85;0.40;;;24.80;61.90;;;;;;5028453;28;20882;-67
2022/08/05 11:23:29;;;;;;;2.30;0.40;;;24.70;61.80;;;;;;5017153;28;20092;-68
2022/08/05 11:26:07;;;;;;;1.30;0.60;;;24.70;62.40;;;;;;5029314;28;20093;-68
2022/08/05 11:28:33;;;;;;;9.30;0.75;;;24.90;63.20;;;;;;5017637;28;21131;-67
2022/08/05 11:31:02;;;;;;;8.23;0.60;;;25.00;63.70;;;;;;4998458;28;20351;-67
2022/08/05 11:33:38;;;;;;;5.97;0.73;;;24.70;64.90;;;;;;5032332;28;20045;-68
2022/08/05 11:36:05;;;;;;;2.65;0.63;;;24.20;65.80;;;;;;5011866;28;20068;-68
2022/08/05 11:38:37;;;;;;;5.88;0.68;;;23.90;67.10;;;;;;5023806;28;20467;-67
2022/08/05 11:41:06;;;;;;;3.35;0.93;;;23.90;67.20;;;;;;5028493;28;20128;-67
2022/08/05 11:43:33;;;;;;;2.28;0.50;;;24.00;66.60;;;;;;5025052;28;20052;-67
2022/08/05 11:46:00;;;;;;;2.95;0.65;;;24.20;65.20;;;;;;5001675;28;20049;-67
2022/08/05 11:48:27;;;;;;;1.85;0.50;;;24.10;63.70;;;;;;5024769;28;20053;-67
2022/08/05 11:50:56;;;;;;;2.53;0.50;;;24.00;63.80;;;;;;5022619;28;20465;-67
2022/08/05 11:53:25;;;;;;;1.23;0.50;;;23.90;64.40;;;;;;5025872;28;20033;-67
2022/08/05 11:56:03;;;;;;;1.25;0.40;;;23.80;66.20;;;;;;5020783;28;20049;-67
2022/08/05 11:58:33;;;;;;;10.60;0.90;;;23.70;67.30;;;;;;5017689;28;20153;-67
2022/08/05 12:01:10;;;;;;;4.00;0.70;;;23.60;68.30;;;;;;5030893;28;20225;-67
2022/08/05 12:03:53;;;;;;;5.50;0.60;;;23.50;67.60;;;;;;4998921;28;21254;-66
2022/08/05 12:06:21;;;;;;;2.42;0.90;;;23.40;68.30;;;;;;5014720;28;20045;-66
2022/08/05 12:08:50;;;;;;;3.17;0.60;;;23.10;69.30;;;;;;5012117;28;20041;-66
2022/08/05 12:11:21;;;;;;;4.07;0.82;;;22.90;70.20;;;;;;5003062;28;20049;-66
2022/08/05 12:14:00;;;;;;;3.92;0.50;;;22.60;70.40;;;;;;4998312;28;20056;-66
2022/08/05 12:16:41;;;;;;;4.53;0.70;;;22.40;71.40;;;;;;5000902;28;20078;-66
2022/08/05 12:19:12;;;;;;;1.92;0.73;;;22.30;71.50;;;;;;5012891;28;20061;-65
2022/08/05 12:21:51;;;;;;;16.08;1.55;;;22.60;71.50;;;;;;5021528;28;20051;-63
2022/08/05 12:24:20;;;;;;;2.78;0.80;;;23.00;71.30;;;;;;5016893;28;20048;-63
2022/08/05 12:26:49;;;;;;;2.15;0.50;;;23.20;70.50;;;;;;5026582;28;20098;-62
2022/08/05 12:29:17;;;;;;;3.88;0.80;;;23.10;68.40;;;;;;5030095;28;20044;-62
2022/08/05 12:31:58;;;;;;;1.85;0.50;;;22.80;68.70;;;;;;4992479;28;20491;-63
2022/08/05 12:34:27;;;;;;;3.08;0.50;;;22.60;69.10;;;;;;5035002;28;20125;-62
2022/08/05 12:36:58;;;;;;;3.97;0.90;;;22.50;69.60;;;;;;5010341;28;20100;-63
2022/08/05 12:39:25;;;;;;;2.70;0.70;;;22.40;70.30;;;;;;5036179;28;20052;-62
2022/08/05 12:41:59;;;;;;;3.72;0.70;;;22.40;70.70;;;;;;5012673;28;20052;-62
2022/08/05 12:44:25;;;;;;;2.63;0.60;;;22.40;70.60;;;;;;5039765;28;20056;-63
2022/08/05 12:46:53;;;;;;;1.63;0.60;;;22.50;70.50;;;;;;5019453;28;20657;-63
2022/08/05 12:49:19;;;;;;;1.77;0.70;;;22.50;70.30;;;;;;5039184;28;20036;-62
2022/08/05 12:51:54;;;;;;;2.03;0.70;;;22.40;70.00;;;;;;5037776;28;20044;-62
2022/08/05 12:54:29;;;;;;;2.60;0.50;;;22.40;69.70;;;;;;5032525;28;20475;-62
2022/08/05 12:56:57;;;;;;;2.30;0.50;;;22.50;70.20;;;;;;5033755;28;20052;-62
2022/08/05 12:59:28;;;;;;;3.35;0.50;;;22.50;69.60;;;;;;5036219;28;20127;-62
2022/08/05 13:02:05;;;;;;;2.13;0.50;;;22.60;69.80;;;;;;5016405;28;20053;-62
2022/08/05 13:04:39;;;;;;;6.05;0.70;;;22.60;68.40;;;;;;5019471;28;20365;-61
2022/08/05 13:07:13;;;;;;;2.10;0.70;;;22.70;68.60;;;;;;5028759;28;20040;-62
2022/08/05 13:09:40;;;;;;;3.30;0.60;;;22.80;69.60;;;;;;5035386;28;20364;-62
2022/08/05 13:12:12;;;;;;;2.90;0.55;;;22.90;70.80;;;;;;5013201;28;20547;-62
2022/08/05 13:14:47;;;;;;;9.02;0.93;;;22.90;70.20;;;;;;5033288;28;20080;-62
2022/08/05 13:17:27;;;;;;;3.10;0.65;;;22.80;70.20;;;;;;5031802;28;20048;-62